sensor_id;sensor_type;location;lat;lon;timestamp;temperature;humidity
54788;DHT22;59598;48.112;16.280;2023-02-22T00:01:01;11.10;99.90
54788;DHT22;59598;48.112;16.280;2023-02-22T00:03:38;11.10;99.90
54788;DHT22;59598;48.112;16.280;2023-02-22T00:06:15;11.10;99.90
54788;DHT22;59598;48.112;16.280;2023-02-22T00:08:47;11.10;99.90
54788;DHT22;59598;48.112;16.280;2023-02-22T00:11:19;11.10;99.90
54788;DHT22;59598;48.112;16.280;2023-02-22T00:13:53;11.10;99.90
54788;DHT22;59598;48.112;16.280;2023-02-22T00:16:27;11.10;99.90
54788;DHT22;59598;48.112;16.280;2023-02-22T00:18:58;11.10;99.90
54788;DHT22;59598;48.112;16.280;2023-02-22T00:21:29;11.10;1.00
54788;DHT22;59598;48.112;16.280;2023-02-22T00:24:07;11.20;99.90
54788;DHT22;59598;48.112;16.280;2023-02-22T00:26:54;11.10;99.90
54788;DHT22;59598;48.112;16.280;2023-02-22T00:29:25;11.20;99.90
54788;DHT22;59598;48.112;16.280;2023-02-22T00:31:59;11.10;99.90
54788;DHT22;59598;48.112;16.280;2023-02-22T00:34:30;11.20;99.90
54788;DHT22;59598;48.112;16.280;2023-02-22T00:37:04;11.20;99.90
54788;DHT22;59598;48.112;16.280;2023-02-22T00:39:35;11.20;99.90
54788;DHT22;59598;48.112;16.280;2023-02-22T00:42:12;11.20;99.90
54788;DHT22;59598;48.112;16.280;2023-02-22T00:44:44;11.20;99.90
54788;DHT22;59598;48.112;16.280;2023-02-22T00:47:15;11.30;99.90
54788;DHT22;59598;48.112;16.280;2023-02-22T00:49:46;11.20;99.90
54788;DHT22;59598;48.112;16.280;2023-02-22T00:52:20;11.20;99.90
54788;DHT22;59598;48.112;16.280;2023-02-22T00:54:57;11.20;99.90
54788;DHT22;59598;48.112;16.280;2023-02-22T00:57:29;11.20;99.90
54788;DHT22;59598;48.112;16.280;2023-02-22T01:00:08;11.20;99.90
54788;DHT22;59598;48.112;16.280;2023-02-22T01:02:43;11.20;99.90
54788;DHT22;59598;48.112;16.280;2023-02-22T01:05:14;11.20;99.90
54788;DHT22;59598;48.112;16.280;2023-02-22T01:07:47;11.20;99.90
54788;DHT22;59598;48.112;16.280;2023-02-22T01:10:21;11.20;99.90
54788;DHT22;59598;48.112;16.280;2023-02-22T01:12:53;11.20;99.90
54788;DHT22;59598;48.112;16.280;2023-02-22T01:15:27;11.20;99.90
54788;DHT22;59598;48.112;16.280;2023-02-22T01:18:00;11.20;99.90
54788;DHT22;59598;48.112;16.280;2023-02-22T01:20:32;11.30;99.90
54788;DHT22;59598;48.112;16.280;2023-02-22T01:23:05;11.20;99.90
54788;DHT22;59598;48.112;16.280;2023-02-22T01:25:37;11.20;99.90
54788;DHT22;59598;48.112;16.280;2023-02-22T01:28:08;11.20;99.90
54788;DHT22;59598;48.112;16.280;2023-02-22T01:30:41;11.20;99.90
54788;DHT22;59598;48.112;16.280;2023-02-22T01:33:14;11.20;99.90
54788;DHT22;59598;48.112;16.280;2023-02-22T01:35:46;11.20;99.90
54788;DHT22;59598;48.112;16.280;2023-02-22T01:38:17;11.20;99.90
54788;DHT22;59598;48.112;16.280;2023-02-22T01:40:49;11.20;99.90
54788;DHT22;59598;48.112;16.280;2023-02-22T01:43:30;11.30;99.90
54788;DHT22;59598;48.112;16.280;2023-02-22T01:46:24;11.30;99.90
54788;DHT22;59598;48.112;16.280;2023-02-22T01:48:59;11.30;99.90
54788;DHT22;59598;48.112;16.280;2023-02-22T01:51:36;11.30;99.90
54788;DHT22;59598;48.112;16.280;2023-02-22T01:54:24;11.30;99.90
54788;DHT22;59598;48.112;16.280;2023-02-22T01:59:41;11.30;99.90
54788;DHT22;59598;48.112;16.280;2023-02-22T02:02:13;11.30;99.90
54788;DHT22;59598;48.112;16.280;2023-02-22T02:04:46;11.30;99.90
54788;DHT22;59598;48.112;16.280;2023-02-22T02:07:20;11.30;99.90
54788;DHT22;59598;48.112;16.280;2023-02-22T02:09:57;11.30;99.90
54788;DHT22;59598;48.112;16.280;2023-02-22T02:12:31;11.30;99.90
54788;DHT22;59598;48.112;16.280;2023-02-22T02:15:25;11.30;99.90
54788;DHT22;59598;48.112;16.280;2023-02-22T02:18:09;11.30;99.90
54788;DHT22;59598;48.112;16.280;2023-02-22T02:24:19;11.30;99.90
54788;DHT22;59598;48.112;16.280;2023-02-22T02:27:10;11.20;99.90
54788;DHT22;59598;48.112;16.280;2023-02-22T02:30:08;11.20;99.90
54788;DHT22;59598;48.112;16.280;2023-02-22T02:38:46;11.10;99.90
54788;DHT22;59598;48.112;16.280;2023-02-22T02:41:43;11.10;99.90
54788;DHT22;59598;48.112;16.280;2023-02-22T02:44:32;11.10;99.90
54788;DHT22;59598;48.112;16.280;2023-02-22T02:47:16;11.10;99.90
54788;DHT22;59598;48.112;16.280;2023-02-22T02:50:10;11.00;99.90
54788;DHT22;59598;48.112;16.280;2023-02-22T02:53:00;11.00;99.90
54788;DHT22;59598;48.112;16.280;2023-02-22T02:55:34;11.00;99.90
54788;DHT22;59598;48.112;16.280;2023-02-22T02:58:18;11.00;99.90
54788;DHT22;59598;48.112;16.280;2023-02-22T03:00:52;11.00;99.90
54788;DHT22;59598;48.112;16.280;2023-02-22T03:09:27;11.00;99.90
54788;DHT22;59598;48.112;16.280;2023-02-22T03:18:12;11.00;99.90
54788;DHT22;59598;48.112;16.280;2023-02-22T03:20:54;11.00;99.90
54788;DHT22;59598;48.112;16.280;2023-02-22T03:23:47;11.00;99.90
54788;DHT22;59598;48.112;16.280;2023-02-22T03:26:27;10.90;99.90
54788;DHT22;59598;48.112;16.280;2023-02-22T03:29:00;10.80;99.90
54788;DHT22;59598;48.112;16.280;2023-02-22T03:31:38;10.80;99.90
54788;DHT22;59598;48.112;16.280;2023-02-22T03:34:21;10.80;99.90
54788;DHT22;59598;48.112;16.280;2023-02-22T03:37:02;10.80;99.90
54788;DHT22;59598;48.112;16.280;2023-02-22T03:39:37;10.70;99.90
54788;DHT22;59598;48.112;16.280;2023-02-22T03:42:13;10.70;99.90
54788;DHT22;59598;48.112;16.280;2023-02-22T03:44:49;10.70;1.00
54788;DHT22;59598;48.112;16.280;2023-02-22T03:47:37;10.70;1.00
54788;DHT22;59598;48.112;16.280;2023-02-22T03:50:24;10.80;1.00
54788;DHT22;59598;48.112;16.280;2023-02-22T03:53:11;10.70;1.00
54788;DHT22;59598;48.112;16.280;2023-02-22T03:55:48;10.70;99.90
54788;DHT22;59598;48.112;16.280;2023-02-22T03:58:23;10.70;99.90
54788;DHT22;59598;48.112;16.280;2023-02-22T04:00:55;10.70;99.90
54788;DHT22;59598;48.112;16.280;2023-02-22T04:03:29;10.70;99.90
54788;DHT22;59598;48.112;16.280;2023-02-22T04:06:00;10.70;99.90
54788;DHT22;59598;48.112;16.280;2023-02-22T04:08:31;10.70;99.90
54788;DHT22;59598;48.112;16.280;2023-02-22T04:11:05;10.80;99.90
54788;DHT22;59598;48.112;16.280;2023-02-22T04:13:36;10.70;99.90
54788;DHT22;59598;48.112;16.280;2023-02-22T04:16:07;10.70;99.90
54788;DHT22;59598;48.112;16.280;2023-02-22T04:18:38;10.70;99.90
54788;DHT22;59598;48.112;16.280;2023-02-22T04:21:12;10.70;99.90
54788;DHT22;59598;48.112;16.280;2023-02-22T04:23:44;10.70;99.90
54788;DHT22;59598;48.112;16.280;2023-02-22T04:26:16;10.70;99.90
54788;DHT22;59598;48.112;16.280;2023-02-22T04:28:47;10.70;99.90
54788;DHT22;59598;48.112;16.280;2023-02-22T04:31:21;10.80;99.90
54788;DHT22;59598;48.112;16.280;2023-02-22T04:33:52;10.70;99.90
54788;DHT22;59598;48.112;16.280;2023-02-22T04:36:26;10.70;99.90
54788;DHT22;59598;48.112;16.280;2023-02-22T04:38:58;10.70;99.90
54788;DHT22;59598;48.112;16.280;2023-02-22T04:41:30;10.60;99.90
54788;DHT22;59598;48.112;16.280;2023-02-22T04:44:05;10.70;99.90
54788;DHT22;59598;48.112;16.280;2023-02-22T04:46:36;10.70;99.90
54788;DHT22;59598;48.112;16.280;2023-02-22T04:49:12;10.60;99.90
54788;DHT22;59598;48.112;16.280;2023-02-22T04:51:43;10.60;99.90
54788;DHT22;59598;48.112;16.280;2023-02-22T04:54:19;10.60;99.90
54788;DHT22;59598;48.112;16.280;2023-02-22T04:56:53;10.60;99.90
54788;DHT22;59598;48.112;16.280;2023-02-22T04:59:27;10.60;99.90
54788;DHT22;59598;48.112;16.280;2023-02-22T05:02:03;10.70;99.90
54788;DHT22;59598;48.112;16.280;2023-02-22T05:04:36;10.60;99.90
54788;DHT22;59598;48.112;16.280;2023-02-22T05:07:11;10.60;99.90
54788;DHT22;59598;48.112;16.280;2023-02-22T05:10:04;10.60;99.90
54788;DHT22;59598;48.112;16.280;2023-02-22T05:12:35;10.60;99.90
54788;DHT22;59598;48.112;16.280;2023-02-22T05:15:08;10.60;99.90
54788;DHT22;59598;48.112;16.280;2023-02-22T05:17:39;10.60;99.90
54788;DHT22;59598;48.112;16.280;2023-02-22T05:20:34;10.60;99.90
54788;DHT22;59598;48.112;16.280;2023-02-22T05:23:05;10.60;99.90
54788;DHT22;59598;48.112;16.280;2023-02-22T05:25:39;10.50;99.90
54788;DHT22;59598;48.112;16.280;2023-02-22T05:28:14;10.50;99.90
54788;DHT22;59598;48.112;16.280;2023-02-22T05:30:51;10.50;99.90
54788;DHT22;59598;48.112;16.280;2023-02-22T05:33:24;10.50;99.90
54788;DHT22;59598;48.112;16.280;2023-02-22T05:35:58;10.50;99.90
54788;DHT22;59598;48.112;16.280;2023-02-22T05:38:32;10.50;99.90
54788;DHT22;59598;48.112;16.280;2023-02-22T05:41:07;10.50;1.00
54788;DHT22;59598;48.112;16.280;2023-02-22T05:43:41;10.40;1.00
54788;DHT22;59598;48.112;16.280;2023-02-22T05:46:15;10.40;1.00
54788;DHT22;59598;48.112;16.280;2023-02-22T05:48:48;10.40;1.00
54788;DHT22;59598;48.112;16.280;2023-02-22T05:51:19;10.40;1.00
54788;DHT22;59598;48.112;16.280;2023-02-22T05:53:53;10.50;1.00
54788;DHT22;59598;48.112;16.280;2023-02-22T05:56:26;10.40;1.00
54788;DHT22;59598;48.112;16.280;2023-02-22T05:59:00;10.40;1.00
54788;DHT22;59598;48.112;16.280;2023-02-22T06:01:31;10.40;1.00
54788;DHT22;59598;48.112;16.280;2023-02-22T06:04:05;10.40;1.00
54788;DHT22;59598;48.112;16.280;2023-02-22T06:06:39;10.40;1.00
54788;DHT22;59598;48.112;16.280;2023-02-22T06:09:10;10.40;1.00
54788;DHT22;59598;48.112;16.280;2023-02-22T06:11:47;10.50;1.00
54788;DHT22;59598;48.112;16.280;2023-02-22T06:14:19;10.50;1.00
54788;DHT22;59598;48.112;16.280;2023-02-22T06:16:54;10.50;1.00
54788;DHT22;59598;48.112;16.280;2023-02-22T06:19:29;10.50;1.00
54788;DHT22;59598;48.112;16.280;2023-02-22T06:22:03;10.50;1.00
54788;DHT22;59598;48.112;16.280;2023-02-22T06:24:37;10.50;99.90
54788;DHT22;59598;48.112;16.280;2023-02-22T06:27:08;10.60;99.90
54788;DHT22;59598;48.112;16.280;2023-02-22T06:29:44;10.70;99.90
54788;DHT22;59598;48.112;16.280;2023-02-22T06:32:16;10.70;99.90
54788;DHT22;59598;48.112;16.280;2023-02-22T06:34:47;10.70;99.90
54788;DHT22;59598;48.112;16.280;2023-02-22T06:37:20;10.70;99.90
54788;DHT22;59598;48.112;16.280;2023-02-22T06:39:54;10.70;99.90
54788;DHT22;59598;48.112;16.280;2023-02-22T06:42:25;10.80;99.90
54788;DHT22;59598;48.112;16.280;2023-02-22T06:44:59;10.80;99.90
54788;DHT22;59598;48.112;16.280;2023-02-22T06:47:30;10.80;99.90
54788;DHT22;59598;48.112;16.280;2023-02-22T06:50:03;10.90;99.90
54788;DHT22;59598;48.112;16.280;2023-02-22T06:52:35;11.00;99.90
54788;DHT22;59598;48.112;16.280;2023-02-22T06:55:06;11.00;99.90
54788;DHT22;59598;48.112;16.280;2023-02-22T06:57:37;11.20;99.90
54788;DHT22;59598;48.112;16.280;2023-02-22T07:00:09;11.30;99.90
54788;DHT22;59598;48.112;16.280;2023-02-22T07:02:41;11.40;99.90
54788;DHT22;59598;48.112;16.280;2023-02-22T07:05:17;11.40;56.90
54788;DHT22;59598;48.112;16.280;2023-02-22T07:07:50;11.40;99.90
54788;DHT22;59598;48.112;16.280;2023-02-22T07:10:27;11.40;37.20
54788;DHT22;59598;48.112;16.280;2023-02-22T07:12:59;11.50;56.20
54788;DHT22;59598;48.112;16.280;2023-02-22T07:15:34;11.60;1.00
54788;DHT22;59598;48.112;16.280;2023-02-22T07:18:06;11.70;1.00
54788;DHT22;59598;48.112;16.280;2023-02-22T07:20:37;11.80;1.00
54788;DHT22;59598;48.112;16.280;2023-02-22T07:23:08;11.90;1.00
54788;DHT22;59598;48.112;16.280;2023-02-22T07:25:42;12.00;1.00
54788;DHT22;59598;48.112;16.280;2023-02-22T07:28:13;12.00;1.00
54788;DHT22;59598;48.112;16.280;2023-02-22T07:30:47;12.00;1.00
54788;DHT22;59598;48.112;16.280;2023-02-22T07:33:18;12.00;1.00
54788;DHT22;59598;48.112;16.280;2023-02-22T07:35:50;12.10;1.00
54788;DHT22;59598;48.112;16.280;2023-02-22T07:38:21;12.00;1.00
54788;DHT22;59598;48.112;16.280;2023-02-22T07:40:53;11.90;1.00
54788;DHT22;59598;48.112;16.280;2023-02-22T07:43:26;12.00;1.00
54788;DHT22;59598;48.112;16.280;2023-02-22T07:46:01;12.00;1.00
54788;DHT22;59598;48.112;16.280;2023-02-22T07:48:34;12.10;1.00
54788;DHT22;59598;48.112;16.280;2023-02-22T07:51:06;12.20;1.00
54788;DHT22;59598;48.112;16.280;2023-02-22T07:53:37;12.20;1.00
54788;DHT22;59598;48.112;16.280;2023-02-22T07:56:13;12.20;1.00
54788;DHT22;59598;48.112;16.280;2023-02-22T07:58:50;12.20;1.00
54788;DHT22;59598;48.112;16.280;2023-02-22T08:01:24;12.30;1.00
54788;DHT22;59598;48.112;16.280;2023-02-22T08:03:57;12.40;1.00
54788;DHT22;59598;48.112;16.280;2023-02-22T08:06:29;12.50;1.00
54788;DHT22;59598;48.112;16.280;2023-02-22T08:09:04;12.50;1.00
54788;DHT22;59598;48.112;16.280;2023-02-22T08:11:35;12.50;99.90
54788;DHT22;59598;48.112;16.280;2023-02-22T08:14:06;12.60;99.90
54788;DHT22;59598;48.112;16.280;2023-02-22T08:16:40;12.80;99.90
54788;DHT22;59598;48.112;16.280;2023-02-22T08:19:11;13.00;99.90
54788;DHT22;59598;48.112;16.280;2023-02-22T08:21:42;13.20;1.00
54788;DHT22;59598;48.112;16.280;2023-02-22T08:24:15;13.40;97.00
54788;DHT22;59598;48.112;16.280;2023-02-22T08:26:47;13.50;99.90
54788;DHT22;59598;48.112;16.280;2023-02-22T08:29:19;13.30;99.90
54788;DHT22;59598;48.112;16.280;2023-02-22T08:31:53;13.60;1.00
54788;DHT22;59598;48.112;16.280;2023-02-22T08:34:27;13.80;28.00
54788;DHT22;59598;48.112;16.280;2023-02-22T08:37:00;14.10;1.00
54788;DHT22;59598;48.112;16.280;2023-02-22T08:39:32;14.10;1.00
54788;DHT22;59598;48.112;16.280;2023-02-22T08:42:05;14.30;1.00
54788;DHT22;59598;48.112;16.280;2023-02-22T08:44:39;14.50;1.00
54788;DHT22;59598;48.112;16.280;2023-02-22T08:47:10;14.60;99.90
54788;DHT22;59598;48.112;16.280;2023-02-22T08:49:44;14.60;1.00
54788;DHT22;59598;48.112;16.280;2023-02-22T08:52:19;14.30;1.00
54788;DHT22;59598;48.112;16.280;2023-02-22T08:54:51;14.30;1.00
54788;DHT22;59598;48.112;16.280;2023-02-22T08:57:23;14.70;1.00
54788;DHT22;59598;48.112;16.280;2023-02-22T08:59:54;15.10;1.00
54788;DHT22;59598;48.112;16.280;2023-02-22T09:02:27;15.40;1.00
54788;DHT22;59598;48.112;16.280;2023-02-22T09:04:59;15.50;1.00
54788;DHT22;59598;48.112;16.280;2023-02-22T09:07:34;15.60;99.90
54788;DHT22;59598;48.112;16.280;2023-02-22T09:10:13;15.50;1.00
54788;DHT22;59598;48.112;16.280;2023-02-22T09:12:47;15.40;1.00
54788;DHT22;59598;48.112;16.280;2023-02-22T09:15:19;15.60;1.00
54788;DHT22;59598;48.112;16.280;2023-02-22T09:17:53;15.80;1.00
54788;DHT22;59598;48.112;16.280;2023-02-22T09:20:24;16.10;1.00
54788;DHT22;59598;48.112;16.280;2023-02-22T09:22:58;16.40;1.00
54788;DHT22;59598;48.112;16.280;2023-02-22T09:25:30;16.20;1.00
54788;DHT22;59598;48.112;16.280;2023-02-22T09:28:01;15.80;1.00
54788;DHT22;59598;48.112;16.280;2023-02-22T09:30:35;16.20;99.90
54788;DHT22;59598;48.112;16.280;2023-02-22T09:33:15;16.60;99.90
54788;DHT22;59598;48.112;16.280;2023-02-22T09:35:49;16.90;1.00
54788;DHT22;59598;48.112;16.280;2023-02-22T09:38:22;16.50;1.00
54788;DHT22;59598;48.112;16.280;2023-02-22T09:41:23;16.30;99.90
54788;DHT22;59598;48.112;16.280;2023-02-22T09:44:15;16.30;46.90
54788;DHT22;59598;48.112;16.280;2023-02-22T09:46:50;16.50;99.90
54788;DHT22;59598;48.112;16.280;2023-02-22T09:49:43;16.90;1.00
54788;DHT22;59598;48.112;16.280;2023-02-22T09:52:29;17.10;1.00
54788;DHT22;59598;48.112;16.280;2023-02-22T09:57:41;16.90;62.80
54788;DHT22;59598;48.112;16.280;2023-02-22T10:00:19;16.80;1.00
54788;DHT22;59598;48.112;16.280;2023-02-22T10:03:21;16.90;1.00
54788;DHT22;59598;48.112;16.280;2023-02-22T10:06:10;16.90;1.00
54788;DHT22;59598;48.112;16.280;2023-02-22T10:08:42;16.90;1.00
54788;DHT22;59598;48.112;16.280;2023-02-22T10:11:31;16.70;1.00
54788;DHT22;59598;48.112;16.280;2023-02-22T10:22:43;17.20;91.00
54788;DHT22;59598;48.112;16.280;2023-02-22T10:25:24;17.70;1.00
54788;DHT22;59598;48.112;16.280;2023-02-22T10:28:18;17.50;1.00
54788;DHT22;59598;48.112;16.280;2023-02-22T10:30:57;17.10;1.00
54788;DHT22;59598;48.112;16.280;2023-02-22T10:33:38;17.20;1.00
54788;DHT22;59598;48.112;16.280;2023-02-22T10:36:23;17.50;1.00
54788;DHT22;59598;48.112;16.280;2023-02-22T10:39:19;17.30;1.00
54788;DHT22;59598;48.112;16.280;2023-02-22T10:41:56;17.10;1.00
54788;DHT22;59598;48.112;16.280;2023-02-22T10:44:32;17.70;99.90
54788;DHT22;59598;48.112;16.280;2023-02-22T10:47:07;17.50;99.90
54788;DHT22;59598;48.112;16.280;2023-02-22T10:49:57;17.90;99.90
54788;DHT22;59598;48.112;16.280;2023-02-22T10:52:32;18.10;99.90
54788;DHT22;59598;48.112;16.280;2023-02-22T10:55:04;18.00;1.00
54788;DHT22;59598;48.112;16.280;2023-02-22T10:57:49;18.40;1.00
54788;DHT22;59598;48.112;16.280;2023-02-22T11:00:37;19.30;99.90
54788;DHT22;59598;48.112;16.280;2023-02-22T11:03:20;20.20;99.90
54788;DHT22;59598;48.112;16.280;2023-02-22T11:06:19;18.90;1.00
54788;DHT22;59598;48.112;16.280;2023-02-22T11:11:44;19.30;1.00
54788;DHT22;59598;48.112;16.280;2023-02-22T11:14:29;21.30;1.00
54788;DHT22;59598;48.112;16.280;2023-02-22T11:17:09;21.90;99.90
54788;DHT22;59598;48.112;16.280;2023-02-22T11:19:47;21.30;1.00
54788;DHT22;59598;48.112;16.280;2023-02-22T11:22:26;19.70;1.00
54788;DHT22;59598;48.112;16.280;2023-02-22T11:25:04;18.60;1.00
54788;DHT22;59598;48.112;16.280;2023-02-22T11:27:40;18.10;1.00
54788;DHT22;59598;48.112;16.280;2023-02-22T11:30:31;18.30;1.00
54788;DHT22;59598;48.112;16.280;2023-02-22T11:38:33;20.50;1.00
54788;DHT22;59598;48.112;16.280;2023-02-22T11:41:26;21.60;99.90
54788;DHT22;59598;48.112;16.280;2023-02-22T11:44:27;22.20;99.90
54788;DHT22;59598;48.112;16.280;2023-02-22T11:47:02;21.40;99.90
54788;DHT22;59598;48.112;16.280;2023-02-22T11:49:41;19.80;1.00
54788;DHT22;59598;48.112;16.280;2023-02-22T11:52:29;18.90;1.00
54788;DHT22;59598;48.112;16.280;2023-02-22T11:55:19;18.90;1.00
54788;DHT22;59598;48.112;16.280;2023-02-22T11:58:24;19.90;1.00
54788;DHT22;59598;48.112;16.280;2023-02-22T12:04:12;21.70;1.00
54788;DHT22;59598;48.112;16.280;2023-02-22T12:10:17;21.30;56.10
54788;DHT22;59598;48.112;16.280;2023-02-22T12:21:37;20.80;99.90
54788;DHT22;59598;48.112;16.280;2023-02-22T12:24:16;20.10;99.90
54788;DHT22;59598;48.112;16.280;2023-02-22T12:27:09;20.00;99.90
54788;DHT22;59598;48.112;16.280;2023-02-22T12:29:42;20.60;99.90
54788;DHT22;59598;48.112;16.280;2023-02-22T12:33:00;21.60;1.00
54788;DHT22;59598;48.112;16.280;2023-02-22T12:35:23;21.70;1.00
54788;DHT22;59598;48.112;16.280;2023-02-22T12:38:17;21.60;1.00
54788;DHT22;59598;48.112;16.280;2023-02-22T12:41:14;21.20;99.90
54788;DHT22;59598;48.112;16.280;2023-02-22T12:44:18;21.70;99.90
54788;DHT22;59598;48.112;16.280;2023-02-22T12:46:54;22.20;99.90
54788;DHT22;59598;48.112;16.280;2023-02-22T12:52:13;23.40;99.90
54788;DHT22;59598;48.112;16.280;2023-02-22T12:57:36;23.10;55.10
54788;DHT22;59598;48.112;16.280;2023-02-22T13:01:04;22.40;99.90
54788;DHT22;59598;48.112;16.280;2023-02-22T13:03:42;21.90;1.00
54788;DHT22;59598;48.112;16.280;2023-02-22T13:09:32;19.80;93.90
54788;DHT22;59598;48.112;16.280;2023-02-22T13:12:18;20.20;99.90
54788;DHT22;59598;48.112;16.280;2023-02-22T13:17:37;19.40;99.90
54788;DHT22;59598;48.112;16.280;2023-02-22T13:20:17;20.00;1.00
54788;DHT22;59598;48.112;16.280;2023-02-22T13:25:43;20.60;1.00
54788;DHT22;59598;48.112;16.280;2023-02-22T13:31:53;19.90;99.90
54788;DHT22;59598;48.112;16.280;2023-02-22T13:52:17;22.50;99.90
54788;DHT22;59598;48.112;16.280;2023-02-22T13:54:52;22.80;1.00
54788;DHT22;59598;48.112;16.280;2023-02-22T13:57:40;22.00;1.00
54788;DHT22;59598;48.112;16.280;2023-02-22T14:00:20;20.90;1.00
54788;DHT22;59598;48.112;16.280;2023-02-22T14:10:51;20.30;1.00
54788;DHT22;59598;48.112;16.280;2023-02-22T14:13:25;20.70;99.90
54788;DHT22;59598;48.112;16.280;2023-02-22T14:18:44;21.10;1.00
54788;DHT22;59598;48.112;16.280;2023-02-22T14:21:19;20.90;1.00
54788;DHT22;59598;48.112;16.280;2023-02-22T14:23:53;21.00;1.00
54788;DHT22;59598;48.112;16.280;2023-02-22T14:26:34;20.80;1.00
54788;DHT22;59598;48.112;16.280;2023-02-22T14:34:17;20.00;1.00
54788;DHT22;59598;48.112;16.280;2023-02-22T14:36:58;19.30;1.00
54788;DHT22;59598;48.112;16.280;2023-02-22T14:39:39;18.90;1.00
54788;DHT22;59598;48.112;16.280;2023-02-22T14:42:23;18.50;1.00
54788;DHT22;59598;48.112;16.280;2023-02-22T14:48:03;18.10;1.00
54788;DHT22;59598;48.112;16.280;2023-02-22T14:50:49;18.70;1.00
54788;DHT22;59598;48.112;16.280;2023-02-22T14:53:59;18.50;1.00
54788;DHT22;59598;48.112;16.280;2023-02-22T14:56:31;18.40;99.90
54788;DHT22;59598;48.112;16.280;2023-02-22T14:59:22;18.20;99.90
54788;DHT22;59598;48.112;16.280;2023-02-22T15:02:10;17.80;1.00
54788;DHT22;59598;48.112;16.280;2023-02-22T15:04:50;17.10;1.00
54788;DHT22;59598;48.112;16.280;2023-02-22T15:07:28;16.90;99.90
54788;DHT22;59598;48.112;16.280;2023-02-22T15:12:36;16.40;99.90
54788;DHT22;59598;48.112;16.280;2023-02-22T15:15:19;15.90;99.90
54788;DHT22;59598;48.112;16.280;2023-02-22T15:17:55;15.40;99.90
54788;DHT22;59598;48.112;16.280;2023-02-22T15:20:28;14.90;99.90
54788;DHT22;59598;48.112;16.280;2023-02-22T15:23:03;14.50;99.90
54788;DHT22;59598;48.112;16.280;2023-02-22T15:25:39;14.40;76.50
54788;DHT22;59598;48.112;16.280;2023-02-22T15:28:13;14.20;99.90
54788;DHT22;59598;48.112;16.280;2023-02-22T15:30:44;14.00;1.00
54788;DHT22;59598;48.112;16.280;2023-02-22T15:33:18;13.80;99.90
54788;DHT22;59598;48.112;16.280;2023-02-22T15:35:55;13.60;1.00
54788;DHT22;59598;48.112;16.280;2023-02-22T15:38:28;13.50;1.00
54788;DHT22;59598;48.112;16.280;2023-02-22T15:41:05;13.40;99.90
54788;DHT22;59598;48.112;16.280;2023-02-22T15:43:38;13.30;99.90
54788;DHT22;59598;48.112;16.280;2023-02-22T15:46:10;13.20;1.00
54788;DHT22;59598;48.112;16.280;2023-02-22T15:51:45;13.00;1.00
54788;DHT22;59598;48.112;16.280;2023-02-22T15:54:19;12.90;99.90
54788;DHT22;59598;48.112;16.280;2023-02-22T15:56:52;12.80;99.90
54788;DHT22;59598;48.112;16.280;2023-02-22T15:59:31;12.70;1.00
54788;DHT22;59598;48.112;16.280;2023-02-22T16:02:04;12.50;1.00
54788;DHT22;59598;48.112;16.280;2023-02-22T16:04:36;12.50;6.40
54788;DHT22;59598;48.112;16.280;2023-02-22T16:07:12;12.40;99.90
54788;DHT22;59598;48.112;16.280;2023-02-22T16:09:48;12.20;1.00
54788;DHT22;59598;48.112;16.280;2023-02-22T16:14:53;12.00;99.90
54788;DHT22;59598;48.112;16.280;2023-02-22T16:17:27;11.90;99.90
54788;DHT22;59598;48.112;16.280;2023-02-22T16:22:44;11.70;1.00
54788;DHT22;59598;48.112;16.280;2023-02-22T16:25:30;11.60;1.00
54788;DHT22;59598;48.112;16.280;2023-02-22T16:28:24;11.40;99.90
54788;DHT22;59598;48.112;16.280;2023-02-22T16:30:57;11.40;99.90
54788;DHT22;59598;48.112;16.280;2023-02-22T16:33:30;11.30;1.00
54788;DHT22;59598;48.112;16.280;2023-02-22T16:36:07;11.20;1.00
54788;DHT22;59598;48.112;16.280;2023-02-22T16:38:38;11.00;1.00
54788;DHT22;59598;48.112;16.280;2023-02-22T16:41:15;11.00;1.00
54788;DHT22;59598;48.112;16.280;2023-02-22T16:43:49;10.90;28.20
54788;DHT22;59598;48.112;16.280;2023-02-22T16:46:21;10.80;99.90
54788;DHT22;59598;48.112;16.280;2023-02-22T16:48:52;10.80;99.90
54788;DHT22;59598;48.112;16.280;2023-02-22T16:51:26;10.70;99.90
54788;DHT22;59598;48.112;16.280;2023-02-22T16:54:01;10.70;99.90
54788;DHT22;59598;48.112;16.280;2023-02-22T16:56:32;10.60;99.90
54788;DHT22;59598;48.112;16.280;2023-02-22T16:59:11;10.40;1.00
54788;DHT22;59598;48.112;16.280;2023-02-22T17:01:44;10.30;1.00
54788;DHT22;59598;48.112;16.280;2023-02-22T17:04:19;10.20;1.00
54788;DHT22;59598;48.112;16.280;2023-02-22T17:06:51;10.20;1.00
54788;DHT22;59598;48.112;16.280;2023-02-22T17:09:22;10.10;1.00
54788;DHT22;59598;48.112;16.280;2023-02-22T17:11:57;10.10;1.00
54788;DHT22;59598;48.112;16.280;2023-02-22T17:14:29;10.00;1.00
54788;DHT22;59598;48.112;16.280;2023-02-22T17:17:01;10.00;1.00
54788;DHT22;59598;48.112;16.280;2023-02-22T17:19:35;9.90;1.00
54788;DHT22;59598;48.112;16.280;2023-02-22T17:22:08;9.90;1.00
54788;DHT22;59598;48.112;16.280;2023-02-22T17:24:42;9.80;1.00
54788;DHT22;59598;48.112;16.280;2023-02-22T17:27:13;9.80;1.00
54788;DHT22;59598;48.112;16.280;2023-02-22T17:29:44;9.70;1.00
54788;DHT22;59598;48.112;16.280;2023-02-22T17:32:15;9.70;1.00
54788;DHT22;59598;48.112;16.280;2023-02-22T17:34:46;9.70;1.00
54788;DHT22;59598;48.112;16.280;2023-02-22T17:37:18;9.70;1.00
54788;DHT22;59598;48.112;16.280;2023-02-22T17:39:51;9.70;1.00
54788;DHT22;59598;48.112;16.280;2023-02-22T17:42:24;9.60;1.00
54788;DHT22;59598;48.112;16.280;2023-02-22T17:44:56;9.60;1.00
54788;DHT22;59598;48.112;16.280;2023-02-22T17:47:27;9.60;1.00
54788;DHT22;59598;48.112;16.280;2023-02-22T17:49:58;9.60;1.00
54788;DHT22;59598;48.112;16.280;2023-02-22T17:52:30;9.60;1.00
54788;DHT22;59598;48.112;16.280;2023-02-22T17:55:04;9.50;1.00
54788;DHT22;59598;48.112;16.280;2023-02-22T17:57:36;9.50;1.00
54788;DHT22;59598;48.112;16.280;2023-02-22T18:00:15;9.50;1.00
54788;DHT22;59598;48.112;16.280;2023-02-22T18:02:53;9.50;1.00
54788;DHT22;59598;48.112;16.280;2023-02-22T18:05:24;9.50;1.00
54788;DHT22;59598;48.112;16.280;2023-02-22T18:07:56;9.50;1.00
54788;DHT22;59598;48.112;16.280;2023-02-22T18:10:31;9.40;1.00
54788;DHT22;59598;48.112;16.280;2023-02-22T18:13:02;9.40;1.00
54788;DHT22;59598;48.112;16.280;2023-02-22T18:15:34;9.40;1.00
54788;DHT22;59598;48.112;16.280;2023-02-22T18:18:06;9.40;1.00
54788;DHT22;59598;48.112;16.280;2023-02-22T18:20:41;9.30;1.00
54788;DHT22;59598;48.112;16.280;2023-02-22T18:23:19;9.30;1.00
54788;DHT22;59598;48.112;16.280;2023-02-22T18:25:51;9.20;1.00
54788;DHT22;59598;48.112;16.280;2023-02-22T18:28:23;9.20;1.00